Latest Weather Observations for Wynyard

IDT60801

Issued at 5:31 pm EST Tuesday 1 September 2015 (issued every 30 minutes, with the page automatically refreshed every 10 minutes)

About weather observations | Map of weather stations | Latest weather observations for TAS | Other Formats
Station Details ID: 091107 Name: WYNYARD AIRPORT Lat: -41.00 Lon: 145.73 Height: 12.0 m
Data from the previous 72 hours. | See also: Recent months at Wynyard
Date/Time
EST
Temp
°C
App
Temp
°C
Dew
Point
Rel
Hum
%
Delta-T
°C
Wind Press
QNH
hPa
Press
MSL
hPa
Rain
since 9 am
mm
Dir
 
Spd
km/h
Gust
km/h
Spd
kts
Gust
kts
01/05:30pm 9.0 6.1 4.6 74 1.9 NW 9 13 5 7 1013.3 1013.4 0.0
01/05:00pm 9.7 6.0 4.7 71 2.2 NW 13 17 7 9 1013.3 1013.4 0.0
01/04:30pm 10.3 5.9 4.5 67 2.6 NW 17 22 9 12 1013.4 1013.5 0.0
01/04:00pm 10.5 6.1 4.6 67 2.6 NW 17 24 9 13 1013.6 1013.7 0.0
01/03:30pm 11.2 6.5 5.1 66 2.8 NNW 19 24 10 13 1013.9 1014.0 0.0
01/03:00pm 11.4 6.7 5.3 66 2.8 NNW 19 24 10 13 1013.9 1014.0 0.0
01/02:30pm 11.5 6.7 5.4 66 2.8 NNW 20 24 11 13 1014.1 1014.2 0.0
01/02:00pm 12.3 7.8 5.9 65 3.0 NNW 19 24 10 13 1014.4 1014.5 0.0
01/01:30pm 12.2 8.0 5.8 65 3.0 NNW 17 22 9 12 1014.7 1014.8 0.0
01/01:00pm 12.1 8.4 6.4 68 2.7 N 15 20 8 11 1014.9 1015.0 0.0
01/12:30pm 11.8 8.7 7.1 73 2.3 NNE 13 20 7 11 1015.2 1015.3 0.0
01/12:00pm 11.1 7.5 6.6 74 2.1 NNE 15 19 8 10 1015.8 1015.9 0.0
01/11:30am 10.6 7.4 6.7 77 1.8 NNE 13 17 7 9 1016.0 1016.1 0.0
01/11:00am 10.7 7.5 6.8 77 1.8 NNE 13 20 7 11 1016.1 1016.2 0.0
01/10:30am 10.1 6.7 5.7 74 2.0 NNE 13 17 7 9 1016.2 1016.3 0.0
01/10:00am 10.0 7.8 6.2 77 1.8 NNE 7 11 4 6 1016.2 1016.3 0.0
01/09:30am 8.7 6.1 6.2 84 1.1 NW 9 11 5 6 1016.5 1016.6 0.0
01/09:00am 6.5 3.7 5.3 92 0.5 WNW 9 11 5 6 1016.5 1016.6 0.0
01/08:30am 4.7 1.4 4.6 99 0.0 WNW 11 13 6 7 1016.4 1016.5 0.0
01/08:00am 2.9 -0.7 2.8 99 0.0 WNW 11 13 6 7 1016.4 1016.5 0.0
01/07:30am 1.5 -2.7 1.4 99 0.0 WNW 13 13 7 7 1016.2 1016.3 0.0
01/07:00am 0.3 -3.7 0.2 99 0.0 WNW 11 13 6 7 1016.1 1016.2 0.0
01/06:30am 0.7 -3.3 0.6 99 0.0 WNW 11 13 6 7 1016.0 1016.1 0.0
01/06:00am 1.3 -2.6 1.2 99 0.0 WNW 11 15 6 8 1016.2 1016.3 0.0
01/05:30am 1.0 -2.9 0.9 99 0.0 WNW 11 13 6 7 1016.3 1016.4 0.0
01/05:00am 0.2 -4.2 0.1 99 0.0 WNW 13 15 7 8 1016.2 1016.3 0.0
01/04:30am -0.5 -4.7 -0.6 99 0.0 W 11 13 6 7 1016.1 1016.2 0.0
01/04:00am -0.5 -4.7 -0.6 99 0.0 WNW 11 13 6 7 1016.1 1016.2 0.0
01/03:30am -0.2 -3.9 -0.3 99 0.0 WNW 9 11 5 6 1016.4 1016.5 0.0
01/03:00am 0.2 -3.9 0.1 99 0.0 WNW 11 15 6 8 1016.7 1016.8 0.0
01/02:30am 0.6 -3.4 0.5 99 0.0 WNW 11 13 6 7 1016.8 1016.9 0.0
01/02:00am 0.4 -3.6 0.3 99 0.0 W 11 11 6 6 1017.2 1017.2 0.0
01/01:30am 0.9 -3.1 0.8 99 0.0 W 11 11 6 6 1017.4 1017.4 0.0
01/01:00am 0.3 -3.7 0.2 99 0.0 W 11 11 6 6 1017.5 1017.5 0.0
01/12:30am 0.8 -3.2 0.7 99 0.0 WSW 11 13 6 7 1017.6 1017.6 0.0
01/12:00am 1.2 -2.7 1.1 99 0.0 WSW 11 11 6 6 1017.5 1017.5 0.0
 
Date/Time
EST
Temp
°C
App
Temp
°C
Dew
Point
Rel
Hum
%
Delta-T
°C
Wind Press
QNH
hPa
Press
MSL
hPa
Rain
since 9 am
mm
Dir
 
Spd
km/h
Gust
km/h
Spd
kts
Gust
kts
31/11:30pm 1.9 -1.9 1.8 99 0.0 W 11 13 6 7 1017.6 1017.6 0.0
31/11:00pm 1.3 -2.6 1.2 99 0.0 W 11 11 6 6 1017.9 1017.9 0.0
31/10:30pm 1.9 -1.9 1.8 99 0.0 WSW 11 13 6 7 1018.1 1018.1 0.0
31/10:00pm 2.8 -1.2 2.7 99 0.0 SW 13 15 7 8 1018.2 1018.2 0.0
31/09:30pm 2.4 -1.7 2.3 99 0.0 W 13 15 7 8 1018.2 1018.2 0.0
31/09:00pm 2.4 -0.9 2.3 99 0.0 SW 9 13 5 7 1018.3 1018.3 0.0
31/08:30pm 2.7 -1.0 2.6 99 0.0 SW 11 13 6 7 1018.3 1018.3 0.0
31/08:00pm 3.5 1.7 3.4 99 0.0 S 2 9 1 5 1018.2 1018.2 0.0
31/07:30pm 4.5 1.6 4.4 99 0.0 SSW 9 11 5 6 1018.1 1018.1 0.0
31/07:00pm 5.0 3.7 4.1 94 0.4 CALM 0 0 0 0 1018.1 1018.1 0.0
31/06:30pm 6.1 3.6 3.6 84 1.1 W 6 7 3 4 1018.0 1018.0 0.0
31/06:00pm 8.6 6.1 4.6 76 1.8 WNW 7 11 4 6 1017.9 1017.9 0.0
31/05:30pm 9.8 6.6 5.0 72 2.2 NW 11 19 6 10 1017.8 1017.8 0.0
31/05:00pm 10.4 6.1 3.4 62 3.0 NW 15 22 8 12 1018.0 1018.0 0.0
31/04:30pm 10.8 6.6 3.8 62 3.1 NW 15 20 8 11 1018.0 1018.0 0.0
31/04:00pm 11.2 6.7 4.4 63 3.0 NNW 17 22 9 12 1018.1 1018.1 0.0
31/03:30pm 10.9 6.4 4.1 63 3.0 NW 17 22 9 12 1018.1 1018.1 0.0
31/03:00pm 11.5 7.0 4.3 61 3.2 NNW 17 22 9 12 1018.4 1018.4 0.0
31/02:30pm 11.6 6.9 3.1 56 3.7 NNW 17 28 9 15 1018.6 1018.6 0.0
31/02:00pm 11.3 6.7 3.8 60 3.3 NNE 17 20 9 11 1018.7 1018.7 0.0
31/01:30pm 11.6 7.4 3.6 58 3.5 NNE 15 20 8 11 1018.9 1018.9 0.0
31/01:00pm 11.7 7.3 4.7 62 3.2 NNE 17 20 9 11 1019.2 1019.2 0.0
31/12:30pm 11.0 6.6 2.8 57 3.5 NNE 15 19 8 10 1019.7 1019.7 0.0
31/12:00pm 11.4 7.6 3.7 59 3.4 NNE 13 17 7 9 1020.2 1020.2 0.0
31/11:30am 11.1 6.9 3.6 60 3.3 NE 15 20 8 11 1020.3 1020.3 0.0
31/11:00am 11.4 8.2 2.9 56 3.7 NE 9 13 5 7 1020.6 1020.6 0.0
31/10:30am 10.7 6.4 3.0 59 3.3 ENE 15 20 8 11 1020.8 1020.8 0.0
31/10:00am 10.3 7.7 4.0 65 2.8 ENE 7 11 4 6 1021.1 1021.1 0.0
31/09:30am 9.4 7.8 4.4 71 2.2 NNE 2 7 1 4 1021.2 1021.2 0.0
31/09:00am 6.8 3.9 4.6 86 1.0 NW 9 11 5 6 1021.5 1021.5 0.2
31/08:30am 4.2 1.2 4.1 99 0.0 WNW 9 11 5 6 1021.6 1021.6 0.2
31/08:00am 1.9 -1.9 1.8 99 0.0 WNW 11 13 6 7 1021.6 1021.6 0.2
31/07:30am 0.2 -4.2 0.1 99 0.0 WNW 13 13 7 7 1021.5 1021.5 0.0
31/07:00am -1.2 -5.8 -1.3 99 0.0 WNW 13 13 7 7 1021.4 1021.4 0.0
31/06:30am -1.4 -6.1 -1.5 99 0.0 WNW 13 15 7 8 1021.2 1021.2 0.0
31/06:00am -1.5 -5.8 -1.6 99 0.0 W 11 13 6 7 1021.1 1021.1 0.0
31/05:30am -1.2 -5.5 -1.3 99 0.0 WNW 11 15 6 8 1021.0 1021.0 0.0
31/05:00am -1.7 -6.0 -1.8 99 0.0 WNW 11 13 6 7 1021.1 1021.1 0.0
31/04:30am -1.0 -5.6 -1.1 99 0.0 WNW 13 15 7 8 1020.9 1020.9 0.0
31/04:00am -0.7 -5.3 -0.8 99 0.0 WNW 13 13 7 7 1020.9 1020.9 0.0
31/03:30am -0.3 -4.8 -0.4 99 0.0 WNW 13 13 7 7 1021.2 1021.2 0.0
31/03:00am 0.0 -4.1 -0.1 99 0.0 WNW 11 13 6 7 1021.6 1021.6 0.0
31/02:30am 0.0 -4.1 -0.1 99 0.0 WNW 11 13 6 7 1022.0 1022.0 0.0
31/02:00am 0.1 -4.0 0.0 99 0.0 WNW 11 13 6 7 1022.3 1022.3 0.0
31/01:30am 0.2 -3.9 0.1 99 0.0 WNW 11 15 6 8 1022.4 1022.4 0.0
31/01:00am 0.9 -2.7 0.8 99 0.0 WSW 9 9 5 5 1022.6 1022.6 0.0
31/12:30am 0.8 -3.2 0.7 99 0.0 WNW 11 15 6 8 1022.9 1022.9 0.0
31/12:00am 1.2 -2.7 1.1 99 0.0 WSW 11 13 6 7 1022.9 1022.9 0.0
 
Date/Time
EST
Temp
°C
App
Temp
°C
Dew
Point
Rel
Hum
%
Delta-T
°C
Wind Press
QNH
hPa
Press
MSL
hPa
Rain
since 9 am
mm
Dir
 
Spd
km/h
Gust
km/h
Spd
kts
Gust
kts
30/11:30pm 1.6 -1.9 1.5 99 0.0 SSW 9 9 5 5 1023.0 1023.0 0.0
30/11:00pm 1.3 -1.3 1.2 99 0.0 S 4 7 2 4 1023.1 1023.1 0.0
30/10:30pm 1.6 -1.9 1.5 99 0.0 SSE 9 11 5 6 1023.4 1023.4 0.0
30/10:00pm 2.0 -1.4 1.9 99 0.0 W 9 9 5 5 1023.5 1023.5 0.0
30/09:30pm 2.4 -0.6 2.3 99 0.0 W 7 9 4 5 1023.6 1023.6 0.0
30/09:00pm 3.3 0.1 3.2 99 0.0 W 9 9 5 5 1023.4 1023.4 0.0
30/08:30pm 2.7 -0.6 2.6 99 0.0 SW 9 11 5 6 1023.2 1023.2 0.0
30/08:00pm 3.7 0.9 3.4 98 0.1 SSE 7 11 4 6 1023.0 1023.0 0.0
30/07:30pm 5.1 2.2 4.8 98 0.1 S 9 11 5 6 1022.6 1022.6 0.0
30/07:00pm 5.1 2.2 4.5 96 0.3 SW 9 11 5 6 1022.4 1022.4 0.0
30/06:30pm 6.3 4.1 3.5 82 1.2 SW 4 7 2 4 1022.3 1022.3 0.0
30/06:00pm 8.6 5.7 4.6 76 1.8 NNW 9 13 5 7 1022.1 1022.1 0.0
30/05:30pm 9.3 6.0 4.5 72 2.1 NW 11 17 6 9 1022.1 1022.1 0.0
30/05:00pm 9.9 6.2 4.5 69 2.4 NNW 13 20 7 11 1021.9 1021.9 0.0
30/04:30pm 10.3 6.3 4.9 69 2.4 NNW 15 20 8 11 1021.6 1021.6 0.0
30/04:00pm 10.7 6.2 4.0 63 3.0 NW 17 24 9 13 1021.8 1021.8 0.0
30/03:30pm 10.7 5.1 3.3 60 3.2 NW 22 32 12 17 1021.9 1021.9 0.0
30/03:00pm 11.7 6.1 3.5 57 3.6 NW 22 32 12 17 1021.8 1021.8 0.0
30/02:30pm 11.7 5.7 3.5 57 3.6 NNW 24 30 13 16 1021.9 1021.9 0.0
30/02:00pm 11.3 5.1 2.1 53 3.9 NNW 24 32 13 17 1022.0 1022.0 0.0
30/01:30pm 11.5 6.2 2.8 55 3.8 NNW 20 28 11 15 1022.2 1022.2 0.0
30/01:00pm 12.1 7.6 2.3 51 4.2 NW 15 20 8 11 1022.4 1022.4 0.0
30/12:30pm 12.5 8.1 2.7 51 4.3 NW 15 22 8 12 1022.8 1022.8 0.0
30/12:00pm 11.7 6.9 0.2 45 4.7 NW 15 20 8 11 1023.5 1023.5 0.0
30/11:30am 11.4 7.8 0.5 47 4.5 WNW 9 15 5 8 1024.0 1024.0 0.0
30/11:00am 10.4 6.5 1.2 53 3.8 W 11 17 6 9 1024.4 1024.4 0.0
30/10:30am 10.0 6.7 0.3 51 3.9 WNW 7 13 4 7 1024.6 1024.6 0.0
30/10:00am 9.3 6.7 0.7 55 3.5 WSW 4 11 2 6 1024.9 1024.9 0.0
30/09:30am 8.3 6.2 1.7 63 2.7 SSW 2 7 1 4 1024.9 1024.9 0.0
30/09:00am 7.1 3.8 2.4 72 1.9 WNW 9 11 5 6 1024.9 1024.9 0.0
30/08:30am 5.7 2.3 2.0 77 1.5 W 9 13 5 7 1024.9 1024.9 0.0
30/08:00am 3.7 0.8 2.4 91 0.5 WNW 7 9 4 5 1024.8 1024.8 0.0
30/07:30am 0.7 -2.9 0.6 99 0.0 SW 9 11 5 6 1024.6 1024.6 0.0
30/07:00am -0.3 -4.5 -0.7 97 0.1 SW 11 15 6 8 1024.4 1024.4 0.0
30/06:30am 0.2 -3.2 -0.5 95 0.3 SW 7 9 4 5 1024.1 1024.1 0.0
30/06:00am 0.6 -1.8 -0.5 92 0.4 WSW 2 9 1 5 1023.7 1023.7 0.0
30/05:30am 2.0 -0.4 -0.2 85 0.8 W 2 6 1 3 1023.4 1023.4 0.0
30/05:00am 2.7 0.6 -0.6 79 1.2 CALM 0 0 0 0 1023.1 1023.1 0.0
30/04:30am 4.7 1.7 0.8 76 1.5 WSW 6 7 3 4 1022.8 1022.8 0.0
30/04:00am 4.3 0.3 0.3 75 1.5 WSW 11 15 6 8 1022.5 1022.5 0.0
30/03:30am 4.3 0.3 0.5 76 1.5 WSW 11 15 6 8 1022.7 1022.7 0.0
30/03:00am 5.7 1.5 1.4 74 1.7 SSW 13 20 7 11 1022.8 1022.8 0.0
30/02:30am 5.5 1.7 1.6 76 1.6 SW 11 17 6 9 1023.3 1023.3 0.0
30/02:00am 5.3 1.4 1.4 76 1.5 SW 11 19 6 10 1023.8 1023.8 0.0
30/01:30am 6.3 2.9 2.0 74 1.7 SW 9 15 5 8 1024.0 1024.0 0.0
30/01:00am 6.3 2.2 2.2 75 1.7 SSW 13 24 7 13 1024.1 1024.1 0.0
30/12:30am 6.7 2.7 2.6 75 1.7 SSW 13 24 7 13 1024.0 1024.0 0.0
30/12:00am 6.7 2.3 2.8 76 1.6 SSW 15 28 8 15 1024.0 1024.0 0.0
 
Date/Time
EST
Temp
°C
App
Temp
°C
Dew
Point
Rel
Hum
%
Delta-T
°C
Wind Press
QNH
hPa
Press
MSL
hPa
Rain
since 9 am
mm
Dir
 
Spd
km/h
Gust
km/h
Spd
kts
Gust
kts
29/11:30pm 7.3 3.0 3.2 75 1.7 SSW 15 26 8 14 1024.1 1024.1 0.0
29/11:00pm 7.3 3.0 3.2 75 1.7 SSW 15 24 8 13 1024.4 1024.4 0.0
29/10:30pm 7.4 3.9 3.3 75 1.7 SSW 11 19 6 10 1024.6 1024.6 0.0
29/10:00pm 7.6 3.3 3.3 74 1.8 SW 15 20 8 11 1024.6 1024.6 0.0
29/09:30pm 8.2 3.6 3.5 72 2.0 SSW 17 30 9 16 1024.2 1024.2 0.0
29/09:00pm 8.3 3.1 3.6 72 2.0 S 20 33 11 18 1023.8 1023.8 0.0
29/08:30pm 8.5 3.9 3.8 72 2.0 SSW 17 24 9 13 1023.6 1023.6 0.0
29/08:00pm 8.6 4.0 3.8 72 2.1 SSW 17 24 9 13 1023.4 1023.4 0.0
29/07:30pm 9.2 4.1 4.0 70 2.3 SSW 20 35 11 19 1023.0 1023.0 0.0
29/07:00pm 9.6 4.5 4.2 69 2.4 SSW 20 30 11 16 1022.7 1022.7 0.0
29/06:30pm 9.9 5.0 4.3 68 2.5 SSW 19 26 10 14 1022.5 1022.5 0.0
29/06:00pm 10.6 4.8 4.3 65 2.8 SSW 24 33 13 18 1022.0 1022.0 0.0

Other Formats:

Comma delimited format used in spreadsheet applications
http://www.bom.gov.au/fwo/IDT60801/IDT60801.95957.axf

JavaScript Object Notation format (JSON) in row-major order
http://www.bom.gov.au/fwo/IDT60801/IDT60801.95957.json